sensor_id;sensor_type;location;lat;lon;timestamp;pressure;altitude;pressure_sealevel;temperature;humidity
42125;BME280;27787;44.594;11.046;2022-08-05T00:00:30;100809.09;;;27.75;46.33
42125;BME280;27787;44.594;11.046;2022-08-05T00:03:14;100807.72;;;27.68;46.29
42125;BME280;27787;44.594;11.046;2022-08-05T00:05:58;100806.09;;;27.65;46.54
42125;BME280;27787;44.594;11.046;2022-08-05T00:08:43;100797.16;;;27.63;46.55
42125;BME280;27787;44.594;11.046;2022-08-05T00:11:28;100793.50;;;27.64;46.59
42125;BME280;27787;44.594;11.046;2022-08-05T00:14:11;100797.66;;;27.70;46.07
42125;BME280;27787;44.594;11.046;2022-08-05T00:16:56;100799.47;;;27.69;46.74
42125;BME280;27787;44.594;11.046;2022-08-05T00:19:40;100795.03;;;27.68;46.42
42125;BME280;27787;44.594;11.046;2022-08-05T00:22:24;100793.94;;;27.56;46.69
42125;BME280;27787;44.594;11.046;2022-08-05T00:25:07;100796.44;;;27.45;46.98
42125;BME280;27787;44.594;11.046;2022-08-05T00:27:52;100801.50;;;27.51;46.89
42125;BME280;27787;44.594;11.046;2022-08-05T00:30:36;100797.25;;;27.61;46.29
42125;BME280;27787;44.594;11.046;2022-08-05T00:33:20;100798.72;;;27.67;46.22
42125;BME280;27787;44.594;11.046;2022-08-05T00:36:04;100796.22;;;27.64;46.60
42125;BME280;27787;44.594;11.046;2022-08-05T00:38:48;100795.09;;;27.52;46.97
42125;BME280;27787;44.594;11.046;2022-08-05T00:41:33;100794.69;;;27.44;47.21
42125;BME280;27787;44.594;11.046;2022-08-05T00:44:17;100789.88;;;27.49;46.70
42125;BME280;27787;44.594;11.046;2022-08-05T00:47:01;100789.88;;;27.63;45.80
42125;BME280;27787;44.594;11.046;2022-08-05T00:49:45;100792.81;;;27.75;45.09
42125;BME280;27787;44.594;11.046;2022-08-05T00:52:29;100789.81;;;27.79;44.89
42125;BME280;27787;44.594;11.046;2022-08-05T00:55:14;100781.34;;;27.84;44.95
42125;BME280;27787;44.594;11.046;2022-08-05T00:57:58;100785.91;;;27.83;45.00
42125;BME280;27787;44.594;11.046;2022-08-05T01:00:42;100794.66;;;27.88;44.68
42125;BME280;27787;44.594;11.046;2022-08-05T01:03:27;100781.19;;;27.87;44.80
42125;BME280;27787;44.594;11.046;2022-08-05T01:06:13;100779.91;;;27.92;44.38
42125;BME280;27787;44.594;11.046;2022-08-05T01:08:57;100777.41;;;27.89;45.14
42125;BME280;27787;44.594;11.046;2022-08-05T01:11:42;100780.69;;;27.80;45.77
42125;BME280;27787;44.594;11.046;2022-08-05T01:14:52;100786.69;;;27.71;46.34
42125;BME280;27787;44.594;11.046;2022-08-05T01:18:00;100787.44;;;27.59;46.75
42125;BME280;27787;44.594;11.046;2022-08-05T01:24:06;100775.25;;;27.38;47.81
42125;BME280;27787;44.594;11.046;2022-08-05T01:29:49;100781.03;;;27.31;47.92
42125;BME280;27787;44.594;11.046;2022-08-05T01:32:37;100780.44;;;27.26;48.21
42125;BME280;27787;44.594;11.046;2022-08-05T01:35:26;100779.06;;;27.19;48.39
42125;BME280;27787;44.594;11.046;2022-08-05T01:38:14;100771.63;;;27.09;49.07
42125;BME280;27787;44.594;11.046;2022-08-05T01:41:00;100776.69;;;26.99;49.30
42125;BME280;27787;44.594;11.046;2022-08-05T01:43:47;100776.56;;;26.86;49.34
42125;BME280;27787;44.594;11.046;2022-08-05T01:46:34;100783.38;;;26.78;49.59
42125;BME280;27787;44.594;11.046;2022-08-05T01:49:24;100777.47;;;26.71;49.79
42125;BME280;27787;44.594;11.046;2022-08-05T01:52:10;100777.06;;;26.63;50.28
42125;BME280;27787;44.594;11.046;2022-08-05T01:55:03;100774.72;;;26.57;50.15
42125;BME280;27787;44.594;11.046;2022-08-05T01:57:50;100775.06;;;26.51;50.49
42125;BME280;27787;44.594;11.046;2022-08-05T02:00:37;100774.00;;;26.53;50.33
42125;BME280;27787;44.594;11.046;2022-08-05T02:03:25;100779.44;;;26.53;50.16
42125;BME280;27787;44.594;11.046;2022-08-05T02:06:12;100786.59;;;26.54;50.28
42125;BME280;27787;44.594;11.046;2022-08-05T02:08:57;100776.72;;;26.53;50.02
42125;BME280;27787;44.594;11.046;2022-08-05T02:11:49;100777.09;;;26.47;50.13
42125;BME280;27787;44.594;11.046;2022-08-05T02:14:51;100777.34;;;26.42;49.86
42125;BME280;27787;44.594;11.046;2022-08-05T02:17:40;100783.13;;;26.36;50.50
42125;BME280;27787;44.594;11.046;2022-08-05T02:20:31;100774.19;;;26.34;50.91
42125;BME280;27787;44.594;11.046;2022-08-05T02:23:20;100778.59;;;26.37;51.27
42125;BME280;27787;44.594;11.046;2022-08-05T02:26:08;100778.72;;;26.34;51.23
42125;BME280;27787;44.594;11.046;2022-08-05T02:28:54;100777.09;;;26.31;51.54
42125;BME280;27787;44.594;11.046;2022-08-05T02:31:39;100782.56;;;26.30;51.80
42125;BME280;27787;44.594;11.046;2022-08-05T02:34:24;100792.44;;;26.31;51.53
42125;BME280;27787;44.594;11.046;2022-08-05T02:37:10;100780.91;;;26.27;51.70
42125;BME280;27787;44.594;11.046;2022-08-05T02:39:57;100786.41;;;26.26;52.11
42125;BME280;27787;44.594;11.046;2022-08-05T02:42:42;100778.19;;;26.27;52.03
42125;BME280;27787;44.594;11.046;2022-08-05T02:45:28;100779.25;;;26.25;52.26
42125;BME280;27787;44.594;11.046;2022-08-05T02:48:13;100781.19;;;26.23;52.45
42125;BME280;27787;44.594;11.046;2022-08-05T02:51:02;100778.38;;;26.24;52.30
42125;BME280;27787;44.594;11.046;2022-08-05T02:53:47;100774.44;;;26.14;52.66
42125;BME280;27787;44.594;11.046;2022-08-05T02:56:33;100774.72;;;26.09;52.83
42125;BME280;27787;44.594;11.046;2022-08-05T02:59:18;100776.03;;;26.02;53.07
42125;BME280;27787;44.594;11.046;2022-08-05T03:02:03;100775.59;;;25.94;53.33
42125;BME280;27787;44.594;11.046;2022-08-05T03:04:49;100772.25;;;25.89;53.36
42125;BME280;27787;44.594;11.046;2022-08-05T03:07:35;100774.19;;;25.87;53.37
42125;BME280;27787;44.594;11.046;2022-08-05T03:10:21;100773.56;;;25.82;53.44
42125;BME280;27787;44.594;11.046;2022-08-05T03:13:15;100775.50;;;25.80;53.53
42125;BME280;27787;44.594;11.046;2022-08-05T03:15:59;100766.84;;;25.89;52.01
42125;BME280;27787;44.594;11.046;2022-08-05T03:18:43;100769.22;;;25.95;51.50
42125;BME280;27787;44.594;11.046;2022-08-05T03:21:28;100771.25;;;25.92;51.73
42125;BME280;27787;44.594;11.046;2022-08-05T03:24:12;100772.25;;;25.89;52.07
42125;BME280;27787;44.594;11.046;2022-08-05T03:26:57;100768.00;;;25.85;52.17
42125;BME280;27787;44.594;11.046;2022-08-05T03:29:43;100754.81;;;25.79;52.06
42125;BME280;27787;44.594;11.046;2022-08-05T03:32:27;100760.47;;;25.74;52.40
42125;BME280;27787;44.594;11.046;2022-08-05T03:35:12;100765.28;;;25.85;52.13
42125;BME280;27787;44.594;11.046;2022-08-05T03:37:57;100766.53;;;25.95;51.54
42125;BME280;27787;44.594;11.046;2022-08-05T03:40:42;100767.31;;;25.97;51.50
42125;BME280;27787;44.594;11.046;2022-08-05T03:43:26;100776.38;;;25.96;51.25
42125;BME280;27787;44.594;11.046;2022-08-05T03:46:10;100764.06;;;25.91;51.51
42125;BME280;27787;44.594;11.046;2022-08-05T03:48:54;100770.50;;;25.88;51.80
42125;BME280;27787;44.594;11.046;2022-08-05T03:51:41;100763.44;;;25.85;52.22
42125;BME280;27787;44.594;11.046;2022-08-05T03:54:38;100765.28;;;25.85;52.39
42125;BME280;27787;44.594;11.046;2022-08-05T03:57:26;100759.09;;;25.83;52.55
42125;BME280;27787;44.594;11.046;2022-08-05T04:00:14;100763.72;;;25.81;52.71
42125;BME280;27787;44.594;11.046;2022-08-05T04:03:00;100769.91;;;25.83;52.32
42125;BME280;27787;44.594;11.046;2022-08-05T04:05:45;100772.88;;;25.78;52.40
42125;BME280;27787;44.594;11.046;2022-08-05T04:08:32;100770.50;;;25.72;52.71
42125;BME280;27787;44.594;11.046;2022-08-05T04:11:17;100773.38;;;25.69;53.08
42125;BME280;27787;44.594;11.046;2022-08-05T04:14:02;100780.13;;;25.61;53.31
42125;BME280;27787;44.594;11.046;2022-08-05T04:16:47;100775.16;;;25.53;54.06
42125;BME280;27787;44.594;11.046;2022-08-05T04:19:41;100773.94;;;25.58;53.98
42125;BME280;27787;44.594;11.046;2022-08-05T04:22:25;100780.13;;;25.61;54.20
42125;BME280;27787;44.594;11.046;2022-08-05T04:25:09;100782.75;;;25.62;54.06
42125;BME280;27787;44.594;11.046;2022-08-05T04:27:53;100790.34;;;25.55;54.46
42125;BME280;27787;44.594;11.046;2022-08-05T04:30:37;100794.09;;;25.53;54.54
42125;BME280;27787;44.594;11.046;2022-08-05T04:33:21;100789.53;;;25.53;54.31
42125;BME280;27787;44.594;11.046;2022-08-05T04:36:06;100794.94;;;25.53;54.32
42125;BME280;27787;44.594;11.046;2022-08-05T04:38:51;100795.00;;;25.52;54.19
42125;BME280;27787;44.594;11.046;2022-08-05T04:41:37;100795.19;;;25.49;54.00
42125;BME280;27787;44.594;11.046;2022-08-05T04:44:21;100796.78;;;25.53;54.04
42125;BME280;27787;44.594;11.046;2022-08-05T04:47:05;100793.81;;;25.57;54.04
42125;BME280;27787;44.594;11.046;2022-08-05T04:49:50;100795.31;;;25.63;53.96
42125;BME280;27787;44.594;11.046;2022-08-05T04:52:34;100803.13;;;25.69;53.81
42125;BME280;27787;44.594;11.046;2022-08-05T04:55:18;100802.94;;;25.72;53.82
42125;BME280;27787;44.594;11.046;2022-08-05T04:58:07;100798.41;;;25.73;53.61
42125;BME280;27787;44.594;11.046;2022-08-05T05:00:51;100792.84;;;25.76;53.39
42125;BME280;27787;44.594;11.046;2022-08-05T05:03:36;100795.53;;;25.76;53.27
42125;BME280;27787;44.594;11.046;2022-08-05T05:06:20;100799.28;;;25.73;53.47
42125;BME280;27787;44.594;11.046;2022-08-05T05:09:04;100786.22;;;25.81;52.83
42125;BME280;27787;44.594;11.046;2022-08-05T05:11:48;100786.75;;;25.88;52.57
42125;BME280;27787;44.594;11.046;2022-08-05T05:14:32;100787.09;;;25.82;52.94
42125;BME280;27787;44.594;11.046;2022-08-05T05:17:17;100796.00;;;25.84;52.54
42125;BME280;27787;44.594;11.046;2022-08-05T05:20:01;100797.84;;;25.83;52.29
42125;BME280;27787;44.594;11.046;2022-08-05T05:22:46;100799.47;;;25.86;52.49
42125;BME280;27787;44.594;11.046;2022-08-05T05:25:30;100793.75;;;25.92;52.01
42125;BME280;27787;44.594;11.046;2022-08-05T05:28:14;100790.88;;;25.95;51.90
42125;BME280;27787;44.594;11.046;2022-08-05T05:30:58;100790.41;;;26.03;52.02
42125;BME280;27787;44.594;11.046;2022-08-05T05:33:42;100798.03;;;26.12;51.63
42125;BME280;27787;44.594;11.046;2022-08-05T05:36:26;100796.63;;;26.21;51.25
42125;BME280;27787;44.594;11.046;2022-08-05T05:39:10;100791.81;;;26.26;51.33
42125;BME280;27787;44.594;11.046;2022-08-05T05:41:54;100784.34;;;26.31;51.26
42125;BME280;27787;44.594;11.046;2022-08-05T05:44:38;100787.97;;;26.30;52.03
42125;BME280;27787;44.594;11.046;2022-08-05T05:47:22;100799.59;;;26.32;51.75
42125;BME280;27787;44.594;11.046;2022-08-05T05:50:08;100796.72;;;26.35;51.82
42125;BME280;27787;44.594;11.046;2022-08-05T05:52:53;100792.81;;;26.40;51.79
42125;BME280;27787;44.594;11.046;2022-08-05T05:55:37;100799.72;;;26.46;52.03
42125;BME280;27787;44.594;11.046;2022-08-05T05:58:21;100796.81;;;26.49;51.79
42125;BME280;27787;44.594;11.046;2022-08-05T06:01:05;100792.19;;;26.51;51.79
42125;BME280;27787;44.594;11.046;2022-08-05T06:03:50;100795.41;;;26.58;51.75
42125;BME280;27787;44.594;11.046;2022-08-05T06:06:34;100796.19;;;26.60;51.59
42125;BME280;27787;44.594;11.046;2022-08-05T06:09:18;100799.69;;;26.62;50.76
42125;BME280;27787;44.594;11.046;2022-08-05T06:12:03;100798.53;;;26.66;50.50
42125;BME280;27787;44.594;11.046;2022-08-05T06:14:47;100802.88;;;26.68;50.39
42125;BME280;27787;44.594;11.046;2022-08-05T06:17:31;100804.47;;;26.72;50.57
42125;BME280;27787;44.594;11.046;2022-08-05T06:20:15;100808.75;;;26.77;50.01
42125;BME280;27787;44.594;11.046;2022-08-05T06:23:00;100813.00;;;26.81;50.54
42125;BME280;27787;44.594;11.046;2022-08-05T06:25:44;100812.75;;;26.85;49.95
42125;BME280;27787;44.594;11.046;2022-08-05T06:28:28;100814.31;;;26.89;49.72
42125;BME280;27787;44.594;11.046;2022-08-05T06:31:13;100816.72;;;26.94;49.61
42125;BME280;27787;44.594;11.046;2022-08-05T06:33:57;100807.38;;;26.99;49.50
42125;BME280;27787;44.594;11.046;2022-08-05T06:36:41;100810.09;;;26.99;49.40
42125;BME280;27787;44.594;11.046;2022-08-05T06:39:26;100814.47;;;27.02;49.37
42125;BME280;27787;44.594;11.046;2022-08-05T06:42:10;100816.03;;;27.06;49.72
42125;BME280;27787;44.594;11.046;2022-08-05T06:44:57;100808.50;;;27.11;49.06
42125;BME280;27787;44.594;11.046;2022-08-05T06:47:42;100818.19;;;27.15;48.41
42125;BME280;27787;44.594;11.046;2022-08-05T06:50:26;100813.28;;;27.22;48.23
42125;BME280;27787;44.594;11.046;2022-08-05T06:53:10;100816.66;;;27.25;47.48
42125;BME280;27787;44.594;11.046;2022-08-05T06:55:57;100815.50;;;27.29;47.38
42125;BME280;27787;44.594;11.046;2022-08-05T06:58:41;100822.47;;;27.33;47.64
42125;BME280;27787;44.594;11.046;2022-08-05T07:01:25;100813.41;;;27.35;47.11
42125;BME280;27787;44.594;11.046;2022-08-05T07:04:10;100815.13;;;27.36;47.17
42125;BME280;27787;44.594;11.046;2022-08-05T07:06:54;100821.22;;;27.39;47.91
42125;BME280;27787;44.594;11.046;2022-08-05T07:09:38;100821.22;;;27.39;47.41
42125;BME280;27787;44.594;11.046;2022-08-05T07:12:22;100821.03;;;27.42;47.71
42125;BME280;27787;44.594;11.046;2022-08-05T07:15:25;100822.69;;;27.45;47.35
42125;BME280;27787;44.594;11.046;2022-08-05T07:18:32;100816.03;;;27.50;47.31
42125;BME280;27787;44.594;11.046;2022-08-05T07:21:16;100821.25;;;27.53;47.84
42125;BME280;27787;44.594;11.046;2022-08-05T07:24:00;100820.19;;;27.56;47.85
42125;BME280;27787;44.594;11.046;2022-08-05T07:26:45;100825.25;;;27.62;48.11
42125;BME280;27787;44.594;11.046;2022-08-05T07:29:29;100820.41;;;27.67;48.06
42125;BME280;27787;44.594;11.046;2022-08-05T07:32:13;100815.56;;;27.72;48.05
42125;BME280;27787;44.594;11.046;2022-08-05T07:34:57;100811.50;;;27.79;48.95
42125;BME280;27787;44.594;11.046;2022-08-05T07:37:41;100812.06;;;27.84;48.76
42125;BME280;27787;44.594;11.046;2022-08-05T07:40:25;100813.53;;;27.90;48.41
42125;BME280;27787;44.594;11.046;2022-08-05T07:43:10;100807.91;;;27.93;48.25
42125;BME280;27787;44.594;11.046;2022-08-05T07:45:56;100804.03;;;27.97;48.24
42125;BME280;27787;44.594;11.046;2022-08-05T07:48:41;100801.13;;;28.00;47.99
42125;BME280;27787;44.594;11.046;2022-08-05T07:51:24;100800.81;;;28.05;47.70
42125;BME280;27787;44.594;11.046;2022-08-05T07:54:08;100797.91;;;28.08;47.86
42125;BME280;27787;44.594;11.046;2022-08-05T07:56:53;100798.50;;;28.13;47.95
42125;BME280;27787;44.594;11.046;2022-08-05T07:59:38;100799.81;;;28.20;47.32
42125;BME280;27787;44.594;11.046;2022-08-05T08:02:27;100798.53;;;28.26;47.31
42125;BME280;27787;44.594;11.046;2022-08-05T08:05:11;100798.28;;;28.30;46.78
42125;BME280;27787;44.594;11.046;2022-08-05T08:07:55;100801.75;;;28.32;46.84
42125;BME280;27787;44.594;11.046;2022-08-05T08:10:40;100797.69;;;28.39;45.66
42125;BME280;27787;44.594;11.046;2022-08-05T08:13:24;100802.69;;;28.45;45.55
42125;BME280;27787;44.594;11.046;2022-08-05T08:16:08;100803.34;;;28.49;45.97
42125;BME280;27787;44.594;11.046;2022-08-05T08:18:52;100802.38;;;28.50;45.45
42125;BME280;27787;44.594;11.046;2022-08-05T08:21:36;100804.97;;;28.52;45.49
42125;BME280;27787;44.594;11.046;2022-08-05T08:24:21;100804.91;;;28.53;45.71
42125;BME280;27787;44.594;11.046;2022-08-05T08:27:05;100805.47;;;28.58;45.34
42125;BME280;27787;44.594;11.046;2022-08-05T08:29:49;100803.22;;;28.65;44.21
42125;BME280;27787;44.594;11.046;2022-08-05T08:32:33;100796.59;;;28.69;44.53
42125;BME280;27787;44.594;11.046;2022-08-05T08:35:19;100796.28;;;28.73;44.71
42125;BME280;27787;44.594;11.046;2022-08-05T08:38:03;100791.59;;;28.75;45.06
42125;BME280;27787;44.594;11.046;2022-08-05T08:40:48;100788.78;;;28.77;45.08
42125;BME280;27787;44.594;11.046;2022-08-05T08:43:34;100794.13;;;28.78;44.82
42125;BME280;27787;44.594;11.046;2022-08-05T08:46:19;100789.47;;;28.81;44.76
42125;BME280;27787;44.594;11.046;2022-08-05T08:49:04;100788.38;;;28.83;44.50
42125;BME280;27787;44.594;11.046;2022-08-05T08:52:22;100785.34;;;28.88;44.33
42125;BME280;27787;44.594;11.046;2022-08-05T08:55:06;100786.03;;;28.91;43.99
42125;BME280;27787;44.594;11.046;2022-08-05T08:57:51;100786.59;;;28.96;43.73
42125;BME280;27787;44.594;11.046;2022-08-05T09:00:35;100780.72;;;29.02;43.79
42125;BME280;27787;44.594;11.046;2022-08-05T09:03:20;100777.81;;;29.05;43.69
42125;BME280;27787;44.594;11.046;2022-08-05T09:06:04;100780.97;;;29.25;41.78
42125;BME280;27787;44.594;11.046;2022-08-05T09:08:48;100779.22;;;29.36;41.68
42125;BME280;27787;44.594;11.046;2022-08-05T09:11:33;100774.78;;;29.35;41.67
42125;BME280;27787;44.594;11.046;2022-08-05T09:14:18;100777.50;;;29.35;41.49
42125;BME280;27787;44.594;11.046;2022-08-05T09:17:06;100776.28;;;29.40;41.15
42125;BME280;27787;44.594;11.046;2022-08-05T09:19:51;100775.19;;;29.42;41.76
42125;BME280;27787;44.594;11.046;2022-08-05T09:25:47;100780.34;;;29.59;41.88
42125;BME280;27787;44.594;11.046;2022-08-05T09:28:34;100777.63;;;29.59;41.80
42125;BME280;27787;44.594;11.046;2022-08-05T09:31:19;100775.44;;;29.64;41.84
42125;BME280;27787;44.594;11.046;2022-08-05T09:34:06;100773.47;;;29.66;40.62
42125;BME280;27787;44.594;11.046;2022-08-05T09:36:50;100771.31;;;29.72;40.46
42125;BME280;27787;44.594;11.046;2022-08-05T09:39:37;100772.06;;;29.74;40.22
42125;BME280;27787;44.594;11.046;2022-08-05T09:42:22;100770.22;;;29.74;39.55
42125;BME280;27787;44.594;11.046;2022-08-05T09:45:07;100763.66;;;29.77;39.14
42125;BME280;27787;44.594;11.046;2022-08-05T09:47:51;100759.72;;;29.81;39.09
42125;BME280;27787;44.594;11.046;2022-08-05T09:50:36;100761.47;;;29.82;38.86
42125;BME280;27787;44.594;11.046;2022-08-05T09:53:20;100762.44;;;29.81;38.19
42125;BME280;27787;44.594;11.046;2022-08-05T09:56:05;100759.28;;;29.87;37.67
42125;BME280;27787;44.594;11.046;2022-08-05T10:01:44;100752.72;;;30.02;37.02
42125;BME280;27787;44.594;11.046;2022-08-05T10:04:35;100748.81;;;30.06;37.00
42125;BME280;27787;44.594;11.046;2022-08-05T10:07:20;100744.34;;;30.05;37.14
42125;BME280;27787;44.594;11.046;2022-08-05T10:10:05;100744.88;;;30.10;37.42
42125;BME280;27787;44.594;11.046;2022-08-05T10:12:53;100744.41;;;30.16;38.06
42125;BME280;27787;44.594;11.046;2022-08-05T10:15:38;100730.44;;;30.21;36.74
42125;BME280;27787;44.594;11.046;2022-08-05T10:18:23;100731.38;;;30.33;35.85
42125;BME280;27787;44.594;11.046;2022-08-05T10:21:10;100733.53;;;30.40;35.63
42125;BME280;27787;44.594;11.046;2022-08-05T10:23:54;100717.81;;;30.44;34.75
42125;BME280;27787;44.594;11.046;2022-08-05T10:26:40;100723.69;;;30.50;34.21
42125;BME280;27787;44.594;11.046;2022-08-05T10:29:25;100728.53;;;30.58;34.46
42125;BME280;27787;44.594;11.046;2022-08-05T10:32:12;100717.97;;;30.77;34.35
42125;BME280;27787;44.594;11.046;2022-08-05T10:34:57;100712.59;;;31.00;33.51
42125;BME280;27787;44.594;11.046;2022-08-05T10:37:42;100713.09;;;31.16;32.91
42125;BME280;27787;44.594;11.046;2022-08-05T10:46:42;100705.44;;;31.21;32.93
42125;BME280;27787;44.594;11.046;2022-08-05T10:49:27;100708.41;;;31.18;32.80
42125;BME280;27787;44.594;11.046;2022-08-05T10:52:53;100701.72;;;31.22;32.74
42125;BME280;27787;44.594;11.046;2022-08-05T10:56:03;100708.44;;;31.29;32.83
42125;BME280;27787;44.594;11.046;2022-08-05T11:01:38;100702.47;;;31.24;33.16
42125;BME280;27787;44.594;11.046;2022-08-05T11:04:26;100696.53;;;31.19;32.84
42125;BME280;27787;44.594;11.046;2022-08-05T11:07:11;100700.72;;;31.23;33.00
42125;BME280;27787;44.594;11.046;2022-08-05T11:09:58;100694.81;;;31.29;32.84
42125;BME280;27787;44.594;11.046;2022-08-05T11:12:45;100700.75;;;31.34;33.21
42125;BME280;27787;44.594;11.046;2022-08-05T11:15:35;100693.94;;;31.40;32.73
42125;BME280;27787;44.594;11.046;2022-08-05T11:18:31;100687.09;;;31.46;33.32
42125;BME280;27787;44.594;11.046;2022-08-05T11:21:30;100687.34;;;31.43;32.83
42125;BME280;27787;44.594;11.046;2022-08-05T11:24:14;100683.63;;;31.44;32.80
42125;BME280;27787;44.594;11.046;2022-08-05T11:27:27;100680.91;;;31.66;32.03
42125;BME280;27787;44.594;11.046;2022-08-05T11:30:12;100688.59;;;31.83;31.74
42125;BME280;27787;44.594;11.046;2022-08-05T11:33:25;100674.44;;;32.21;31.52
42125;BME280;27787;44.594;11.046;2022-08-05T11:36:11;100677.44;;;32.30;30.76
42125;BME280;27787;44.594;11.046;2022-08-05T11:38:55;100672.22;;;32.15;31.37
42125;BME280;27787;44.594;11.046;2022-08-05T11:41:40;100668.91;;;32.01;32.09
42125;BME280;27787;44.594;11.046;2022-08-05T11:44:35;100671.66;;;32.01;32.47
42125;BME280;27787;44.594;11.046;2022-08-05T11:47:23;100655.69;;;32.28;31.21
42125;BME280;27787;44.594;11.046;2022-08-05T11:50:08;100665.09;;;32.35;31.02
42125;BME280;27787;44.594;11.046;2022-08-05T11:52:52;100667.75;;;32.58;30.96
42125;BME280;27787;44.594;11.046;2022-08-05T11:55:51;100661.81;;;32.73;30.81
42125;BME280;27787;44.594;11.046;2022-08-05T11:58:38;100664.13;;;32.78;30.87
42125;BME280;27787;44.594;11.046;2022-08-05T12:01:25;100665.38;;;32.85;31.47
42125;BME280;27787;44.594;11.046;2022-08-05T12:04:09;100666.09;;;32.87;31.75
42125;BME280;27787;44.594;11.046;2022-08-05T12:06:54;100658.91;;;32.86;31.77
42125;BME280;27787;44.594;11.046;2022-08-05T12:09:41;100661.28;;;33.00;31.35
42125;BME280;27787;44.594;11.046;2022-08-05T12:12:25;100655.59;;;33.13;31.13
42125;BME280;27787;44.594;11.046;2022-08-05T12:15:20;100662.44;;;32.98;31.33
42125;BME280;27787;44.594;11.046;2022-08-05T12:18:04;100653.81;;;32.81;31.97
42125;BME280;27787;44.594;11.046;2022-08-05T12:20:48;100658.47;;;32.70;32.55
42125;BME280;27787;44.594;11.046;2022-08-05T12:23:32;100659.34;;;32.91;32.17
42125;BME280;27787;44.594;11.046;2022-08-05T12:26:17;100651.25;;;33.10;31.27
42125;BME280;27787;44.594;11.046;2022-08-05T12:29:03;100658.59;;;33.10;31.70
42125;BME280;27787;44.594;11.046;2022-08-05T12:31:51;100651.91;;;33.24;32.29
42125;BME280;27787;44.594;11.046;2022-08-05T12:34:36;100643.78;;;33.43;31.27
42125;BME280;27787;44.594;11.046;2022-08-05T12:37:22;100644.94;;;33.40;31.66
42125;BME280;27787;44.594;11.046;2022-08-05T12:40:08;100642.25;;;33.50;31.26
42125;BME280;27787;44.594;11.046;2022-08-05T12:42:52;100638.44;;;33.41;31.65
42125;BME280;27787;44.594;11.046;2022-08-05T12:45:36;100635.34;;;33.25;31.63
42125;BME280;27787;44.594;11.046;2022-08-05T12:48:21;100633.38;;;33.06;32.13
42125;BME280;27787;44.594;11.046;2022-08-05T12:54:02;100622.66;;;32.94;32.78
42125;BME280;27787;44.594;11.046;2022-08-05T12:59:53;100621.81;;;33.24;31.79
42125;BME280;27787;44.594;11.046;2022-08-05T13:02:38;100621.19;;;33.51;31.61
42125;BME280;27787;44.594;11.046;2022-08-05T13:05:23;100609.53;;;33.58;31.11
42125;BME280;27787;44.594;11.046;2022-08-05T13:08:07;100609.66;;;33.47;31.27
42125;BME280;27787;44.594;11.046;2022-08-05T13:10:58;100607.47;;;33.41;31.78
42125;BME280;27787;44.594;11.046;2022-08-05T13:13:43;100607.75;;;33.38;31.68
42125;BME280;27787;44.594;11.046;2022-08-05T13:16:28;100607.53;;;33.30;31.92
42125;BME280;27787;44.594;11.046;2022-08-05T13:19:13;100600.56;;;33.37;32.34
42125;BME280;27787;44.594;11.046;2022-08-05T13:21:57;100595.84;;;33.49;31.51
42125;BME280;27787;44.594;11.046;2022-08-05T13:24:41;100597.28;;;33.53;31.75
42125;BME280;27787;44.594;11.046;2022-08-05T13:27:34;100582.00;;;33.50;31.83
42125;BME280;27787;44.594;11.046;2022-08-05T13:30:22;100580.28;;;33.59;31.15
42125;BME280;27787;44.594;11.046;2022-08-05T13:33:08;100577.53;;;33.59;31.30
42125;BME280;27787;44.594;11.046;2022-08-05T13:35:54;100581.88;;;33.61;31.42
42125;BME280;27787;44.594;11.046;2022-08-05T13:38:38;100574.19;;;33.86;30.33
42125;BME280;27787;44.594;11.046;2022-08-05T13:41:22;100576.31;;;34.11;29.79
42125;BME280;27787;44.594;11.046;2022-08-05T13:44:06;100576.47;;;34.29;29.95
42125;BME280;27787;44.594;11.046;2022-08-05T13:46:50;100579.47;;;34.65;29.56
42125;BME280;27787;44.594;11.046;2022-08-05T13:49:35;100576.56;;;34.66;29.64
42125;BME280;27787;44.594;11.046;2022-08-05T13:52:21;100564.75;;;34.56;29.67
42125;BME280;27787;44.594;11.046;2022-08-05T13:55:06;100566.34;;;34.49;29.74
42125;BME280;27787;44.594;11.046;2022-08-05T13:57:50;100559.41;;;34.54;29.46
42125;BME280;27787;44.594;11.046;2022-08-05T14:00:34;100554.50;;;34.58;29.64
42125;BME280;27787;44.594;11.046;2022-08-05T14:03:19;100549.41;;;34.63;29.83
42125;BME280;27787;44.594;11.046;2022-08-05T14:06:03;100549.56;;;34.62;29.95
42125;BME280;27787;44.594;11.046;2022-08-05T14:08:47;100549.13;;;34.66;29.79
42125;BME280;27787;44.594;11.046;2022-08-05T14:11:31;100539.28;;;34.73;29.53
42125;BME280;27787;44.594;11.046;2022-08-05T14:14:15;100536.22;;;34.76;29.58
42125;BME280;27787;44.594;11.046;2022-08-05T14:16:59;100531.34;;;34.80;29.20
42125;BME280;27787;44.594;11.046;2022-08-05T14:19:44;100532.03;;;34.92;29.33
42125;BME280;27787;44.594;11.046;2022-08-05T14:22:28;100522.16;;;34.99;29.03
42125;BME280;27787;44.594;11.046;2022-08-05T14:25:12;100520.94;;;35.11;28.74
42125;BME280;27787;44.594;11.046;2022-08-05T14:27:57;100517.38;;;35.28;28.87
42125;BME280;27787;44.594;11.046;2022-08-05T14:30:41;100519.94;;;35.39;28.35
42125;BME280;27787;44.594;11.046;2022-08-05T14:33:25;100509.81;;;35.40;28.41
42125;BME280;27787;44.594;11.046;2022-08-05T14:36:09;100511.28;;;35.34;28.92
42125;BME280;27787;44.594;11.046;2022-08-05T14:38:53;100520.34;;;35.62;27.65
42125;BME280;27787;44.594;11.046;2022-08-05T14:41:38;100517.53;;;35.72;27.38
42125;BME280;27787;44.594;11.046;2022-08-05T14:44:22;100508.66;;;35.78;27.64